createdAt,value
2022-08-10T00:00:53.617Z,23.23
2022-08-10T00:03:22.629Z,23.20
2022-08-10T00:05:52.690Z,23.19
2022-08-10T00:08:23.746Z,23.17
2022-08-10T00:10:52.299Z,23.15
2022-08-10T00:13:20.054Z,23.10
2022-08-10T00:15:53.973Z,23.13
2022-08-10T00:18:31.228Z,23.09
2022-08-10T00:21:03.304Z,23.07
2022-08-10T00:23:31.038Z,23.04
2022-08-10T00:25:58.738Z,23.03
2022-08-10T00:28:26.674Z,23.03
2022-08-10T00:30:54.499Z,23.00
2022-08-10T00:33:23.558Z,22.97
2022-08-10T00:35:51.507Z,22.97
2022-08-10T00:38:19.251Z,22.94
2022-08-10T00:40:47.145Z,22.92
2022-08-10T00:43:14.922Z,22.92
2022-08-10T00:45:59.774Z,22.90
2022-08-10T00:48:30.813Z,22.90
2022-08-10T00:50:59.557Z,22.89
2022-08-10T00:53:27.536Z,22.88
2022-08-10T00:57:12.439Z,22.88
2022-08-10T00:58:44.276Z,22.86
2022-08-10T01:02:07.247Z,22.84
2022-08-10T01:04:54.118Z,22.82
2022-08-10T01:07:02.669Z,22.82
2022-08-10T01:09:36.350Z,22.80
2022-08-10T01:12:47.000Z,22.79
2022-08-10T01:15:08.478Z,22.78
2022-08-10T01:17:50.301Z,22.75
2022-08-10T01:20:31.071Z,22.69
2022-08-10T01:23:26.778Z,22.71
2022-08-10T01:26:31.091Z,22.71
2022-08-10T01:29:21.667Z,22.66
2022-08-10T01:31:54.867Z,22.64
2022-08-10T01:34:27.307Z,22.61
2022-08-10T01:37:00.869Z,22.58
2022-08-10T01:39:33.788Z,22.56
2022-08-10T01:42:04.198Z,22.55
2022-08-10T01:44:36.380Z,22.54
2022-08-10T01:47:27.471Z,22.53
2022-08-10T01:50:03.292Z,22.50
2022-08-10T01:52:33.344Z,22.49
2022-08-10T01:55:01.254Z,22.45
2022-08-10T01:57:32.244Z,22.39
2022-08-10T02:00:03.331Z,22.41
2022-08-10T02:02:34.874Z,22.42
2022-08-10T02:05:05.018Z,22.39
2022-08-10T02:07:36.407Z,22.37
2022-08-10T02:10:10.693Z,22.32
2022-08-10T02:12:40.631Z,22.29
2022-08-10T02:15:12.021Z,22.28
2022-08-10T02:17:57.426Z,22.26
2022-08-10T02:20:34.217Z,22.24
2022-08-10T02:23:06.284Z,22.20
2022-08-10T02:25:42.608Z,22.15
2022-08-10T02:28:30.075Z,22.17
2022-08-10T02:31:02.701Z,22.17
2022-08-10T02:33:37.275Z,22.15
2022-08-10T02:36:07.719Z,22.16
2022-08-10T02:38:58.064Z,22.15
2022-08-10T02:45:03.266Z,22.13
2022-08-10T02:45:24.228Z,22.13
2022-08-10T02:47:23.087Z,22.12
2022-08-10T02:50:00.401Z,22.11
2022-08-10T02:52:34.584Z,22.02
2022-08-10T02:55:17.389Z,22.08
2022-08-10T02:58:13.378Z,22.07
2022-08-10T03:00:45.400Z,22.06
2022-08-10T03:03:20.257Z,22.05
2022-08-10T03:05:54.531Z,22.03
2022-08-10T03:08:25.671Z,22.02
2022-08-10T03:10:55.737Z,22.00
2022-08-10T03:13:25.023Z,21.97
2022-08-10T03:15:52.981Z,21.94
2022-08-10T03:18:24.640Z,21.93
2022-08-10T03:20:55.004Z,21.92
2022-08-10T03:23:25.634Z,21.90
2022-08-10T03:25:56.427Z,21.88
2022-08-10T03:28:26.765Z,21.86
2022-08-10T03:30:55.640Z,21.86
2022-08-10T03:33:25.326Z,21.84
2022-08-10T03:36:39.916Z,21.83
2022-08-10T03:38:44.479Z,21.81
2022-08-10T03:41:16.231Z,21.79
2022-08-10T03:43:47.774Z,21.78
2022-08-10T03:46:19.328Z,21.76
2022-08-10T03:48:50.738Z,21.75
2022-08-10T03:51:21.304Z,21.73
2022-08-10T03:54:05.524Z,21.72
2022-08-10T03:56:37.083Z,21.70
2022-08-10T03:59:06.556Z,21.67
2022-08-10T04:02:41.930Z,21.62
2022-08-10T04:04:24.779Z,21.62
2022-08-10T04:06:56.724Z,21.60
2022-08-10T04:09:42.846Z,21.58
2022-08-10T04:12:15.245Z,21.55
2022-08-10T04:14:50.811Z,21.54
2022-08-10T04:17:56.819Z,21.52
2022-08-10T04:20:14.747Z,21.51
2022-08-10T04:22:45.716Z,21.51
2022-08-10T04:25:15.839Z,21.50
2022-08-10T04:27:44.213Z,21.49
2022-08-10T04:30:12.333Z,21.48
2022-08-10T04:32:42.278Z,21.47
2022-08-10T04:35:11.771Z,21.47
2022-08-10T04:37:46.663Z,21.44
2022-08-10T04:40:28.475Z,21.44
2022-08-10T04:43:02.284Z,21.43
2022-08-10T04:45:47.640Z,21.42
2022-08-10T04:48:40.444Z,21.38
2022-08-10T04:51:08.093Z,21.38
2022-08-10T04:54:05.904Z,21.37
2022-08-10T04:56:32.061Z,21.36
2022-08-10T04:59:00.355Z,21.34
2022-08-10T05:02:21.622Z,21.32
2022-08-10T05:04:35.689Z,21.30
2022-08-10T05:07:03.674Z,21.29
2022-08-10T05:09:31.408Z,21.28
2022-08-10T05:12:00.431Z,21.27
2022-08-10T05:14:28.106Z,21.25
2022-08-10T05:16:55.778Z,21.23
2022-08-10T05:20:04.904Z,21.23
2022-08-10T05:22:11.198Z,21.22
2022-08-10T05:24:38.877Z,21.22
2022-08-10T05:27:10.114Z,21.22
2022-08-10T05:29:38.276Z,21.20
2022-08-10T05:32:06.386Z,21.20
2022-08-10T05:34:34.157Z,21.19
2022-08-10T05:37:02.442Z,21.20
2022-08-10T05:39:32.275Z,21.19
2022-08-10T05:42:02.465Z,21.18
2022-08-10T05:44:31.699Z,21.17
2022-08-10T05:46:59.480Z,21.17
2022-08-10T05:49:27.259Z,21.18
2022-08-10T05:51:55.013Z,21.17
2022-08-10T05:54:25.124Z,21.19
2022-08-10T05:56:58.050Z,21.19
2022-08-10T06:00:10.925Z,21.21
2022-08-10T06:02:41.086Z,21.21
2022-08-10T06:05:11.790Z,21.19
2022-08-10T06:07:43.548Z,21.19
2022-08-10T06:10:31.202Z,21.21
2022-08-10T06:13:26.698Z,21.24
2022-08-10T06:16:03.669Z,21.26
2022-08-10T06:18:33.316Z,21.28
2022-08-10T06:21:01.574Z,21.30
2022-08-10T06:23:31.481Z,21.31
2022-08-10T06:26:10.502Z,21.36
2022-08-10T06:28:43.902Z,21.38
2022-08-10T06:31:46.739Z,21.40
2022-08-10T06:34:21.778Z,21.43
2022-08-10T06:36:50.726Z,21.42
2022-08-10T06:39:35.677Z,21.45
2022-08-10T06:42:16.429Z,21.51
2022-08-10T06:44:52.216Z,21.52
2022-08-10T06:47:23.220Z,21.55
2022-08-10T06:49:59.829Z,21.58
2022-08-10T06:52:31.821Z,21.59
2022-08-10T06:55:01.215Z,21.61
2022-08-10T06:57:35.547Z,21.64
2022-08-10T07:00:07.517Z,21.67
2022-08-10T07:02:42.344Z,21.71
2022-08-10T07:05:19.962Z,21.74
2022-08-10T07:07:50.258Z,21.77
2022-08-10T07:10:19.584Z,21.78
2022-08-10T07:12:49.547Z,21.81
2022-08-10T07:15:18.590Z,21.82
2022-08-10T07:17:48.371Z,21.84
2022-08-10T07:20:19.666Z,21.84
2022-08-10T07:23:01.737Z,21.86
2022-08-10T07:25:38.734Z,21.87
2022-08-10T07:28:06.730Z,21.89
2022-08-10T07:30:39.132Z,21.90
2022-08-10T07:33:08.351Z,21.91
2022-08-10T07:35:42.547Z,21.93
2022-08-10T07:38:14.469Z,21.94
2022-08-10T07:40:43.401Z,21.94
2022-08-10T07:43:12.233Z,21.95
2022-08-10T07:45:41.008Z,21.97
2022-08-10T07:48:12.820Z,21.95
2022-08-10T07:50:43.754Z,21.97
2022-08-10T07:53:14.571Z,21.97
2022-08-10T07:56:07.449Z,21.95
2022-08-10T07:58:35.118Z,21.95
2022-08-10T08:01:02.958Z,21.93
2022-08-10T08:03:32.221Z,21.94
2022-08-10T08:06:05.625Z,21.94
2022-08-10T08:08:41.497Z,21.94
2022-08-10T08:11:10.241Z,21.94
2022-08-10T08:13:55.589Z,21.95
2022-08-10T08:16:24.919Z,21.95
2022-08-10T08:19:26.777Z,21.96
2022-08-10T08:24:10.408Z,21.96
2022-08-10T08:24:37.282Z,21.98
2022-08-10T08:27:07.773Z,21.89
2022-08-10T08:29:42.181Z,21.98
2022-08-10T08:32:11.729Z,21.99
2022-08-10T08:34:42.338Z,21.98
2022-08-10T08:37:13.320Z,22.00
2022-08-10T08:40:02.123Z,22.01
2022-08-10T08:42:49.219Z,22.03
2022-08-10T08:45:25.140Z,22.05
2022-08-10T08:48:09.442Z,22.03
2022-08-10T08:50:56.741Z,22.08
2022-08-10T08:54:02.007Z,22.10
2022-08-10T08:56:40.199Z,22.08
2022-08-10T08:59:42.649Z,22.15
2022-08-10T09:02:22.377Z,22.17
2022-08-10T09:05:09.898Z,22.20
2022-08-10T09:08:01.189Z,22.23
2022-08-10T09:10:41.815Z,22.25
2022-08-10T09:13:19.036Z,22.26
2022-08-10T09:15:52.691Z,22.28
2022-08-10T09:18:25.169Z,22.30
2022-08-10T09:21:00.156Z,22.31
2022-08-10T09:24:04.442Z,22.33
2022-08-10T09:26:39.174Z,22.34
2022-08-10T09:29:12.479Z,22.37
2022-08-10T09:31:55.869Z,22.39
2022-08-10T09:36:21.929Z,22.42
2022-08-10T09:38:02.410Z,22.46
2022-08-10T09:41:00.305Z,22.48
2022-08-10T09:43:36.306Z,22.52
2022-08-10T09:46:11.696Z,22.57
2022-08-10T09:48:46.738Z,22.62
2022-08-10T09:51:44.709Z,22.67
2022-08-10T09:54:25.680Z,22.71
2022-08-10T09:57:41.178Z,22.74
2022-08-10T10:00:01.493Z,22.79
2022-08-10T10:02:43.239Z,22.83
2022-08-10T10:05:26.214Z,22.87
2022-08-10T10:08:04.058Z,22.93
2022-08-10T10:10:47.425Z,22.95
2022-08-10T10:13:48.943Z,22.99
2022-08-10T10:16:24.834Z,23.04
2022-08-10T10:19:05.495Z,23.09
2022-08-10T10:21:55.877Z,23.12
2022-08-10T10:24:34.193Z,23.18
2022-08-10T10:27:16.342Z,23.22
2022-08-10T10:29:57.192Z,23.29
2022-08-10T10:32:40.233Z,23.34
2022-08-10T10:35:19.966Z,23.38
2022-08-10T10:38:01.027Z,23.42
2022-08-10T10:40:38.729Z,23.45
2022-08-10T10:43:12.493Z,23.49
2022-08-10T10:45:56.454Z,23.52
2022-08-10T10:48:33.923Z,23.54
2022-08-10T10:51:10.691Z,23.62
2022-08-10T10:53:45.052Z,23.75
2022-08-10T10:56:21.371Z,23.85
2022-08-10T10:58:54.252Z,23.99
2022-08-10T11:01:32.946Z,24.11
2022-08-10T11:04:12.297Z,24.14
2022-08-10T11:06:53.276Z,24.18
2022-08-10T11:10:08.885Z,24.20
2022-08-10T11:12:26.299Z,24.28
2022-08-10T11:15:04.418Z,24.34
2022-08-10T11:17:39.694Z,24.37
2022-08-10T11:20:17.188Z,24.39
2022-08-10T11:22:53.972Z,24.41
2022-08-10T11:25:28.543Z,24.45
2022-08-10T11:28:04.827Z,24.50
2022-08-10T11:30:34.723Z,24.54
2022-08-10T11:33:14.207Z,24.57
2022-08-10T11:36:05.080Z,24.66
2022-08-10T11:38:52.239Z,24.74
2022-08-10T11:42:07.950Z,24.81
2022-08-10T11:44:34.402Z,24.82
2022-08-10T11:47:09.399Z,24.77
2022-08-10T11:49:55.140Z,24.81
2022-08-10T11:52:35.336Z,24.86
2022-08-10T11:55:10.969Z,24.93
2022-08-10T11:57:53.396Z,24.98
2022-08-10T12:00:22.921Z,25.01
2022-08-10T12:02:56.209Z,25.07
2022-08-10T12:05:51.806Z,25.12
2022-08-10T12:10:06.567Z,25.20
2022-08-10T12:11:06.830Z,25.30
2022-08-10T12:13:49.785Z,25.33
2022-08-10T12:16:29.713Z,25.39
2022-08-10T12:19:03.835Z,25.43
2022-08-10T12:21:36.397Z,25.45
2022-08-10T12:24:12.557Z,25.45
2022-08-10T12:26:43.840Z,25.47
2022-08-10T12:29:15.615Z,25.50
2022-08-10T12:31:49.062Z,25.60
2022-08-10T12:34:23.422Z,25.62
2022-08-10T12:36:58.544Z,25.76
2022-08-10T12:39:30.942Z,25.80
2022-08-10T12:42:04.468Z,25.86
2022-08-10T12:44:42.273Z,25.89
2022-08-10T12:47:17.848Z,25.90
2022-08-10T12:50:20.059Z,25.94
2022-08-10T12:52:51.181Z,25.99
2022-08-10T12:55:22.103Z,26.04
2022-08-10T12:57:53.554Z,26.06
2022-08-10T13:00:26.918Z,26.06
2022-08-10T13:02:55.718Z,26.11
2022-08-10T13:05:26.981Z,26.18
2022-08-10T13:08:27.103Z,26.25
2022-08-10T13:11:01.841Z,26.31
2022-08-10T13:13:35.886Z,26.32
2022-08-10T13:16:04.186Z,26.39
2022-08-10T13:18:36.040Z,26.46
2022-08-10T13:21:21.011Z,26.49
2022-08-10T13:24:04.918Z,26.50
2022-08-10T13:26:49.502Z,26.55
2022-08-10T13:29:33.213Z,26.61
2022-08-10T13:32:10.161Z,26.67
2022-08-10T13:34:45.418Z,26.69
2022-08-10T13:37:16.788Z,26.70
2022-08-10T13:39:57.630Z,26.70
2022-08-10T13:42:36.848Z,26.79
2022-08-10T13:45:10.743Z,26.81
2022-08-10T13:47:48.577Z,26.87
2022-08-10T13:50:34.957Z,26.90
2022-08-10T13:53:14.015Z,26.93
2022-08-10T13:55:55.304Z,26.93
2022-08-10T13:58:29.018Z,26.94
2022-08-10T14:00:59.071Z,26.95
2022-08-10T14:03:28.233Z,26.94
2022-08-10T14:05:59.321Z,26.95
2022-08-10T14:08:30.471Z,26.99
2022-08-10T14:11:11.815Z,26.97
2022-08-10T14:13:46.255Z,27.03
2022-08-10T14:16:14.670Z,27.07
2022-08-10T14:18:45.841Z,27.11
2022-08-10T14:21:14.631Z,27.10
2022-08-10T14:23:52.946Z,27.13
2022-08-10T14:26:24.605Z,27.18
2022-08-10T14:28:56.119Z,27.25
2022-08-10T14:31:29.995Z,27.30
2022-08-10T14:34:00.431Z,27.34
2022-08-10T14:36:39.139Z,27.37
2022-08-10T14:39:08.582Z,27.35
2022-08-10T14:42:01.576Z,27.34
2022-08-10T14:44:32.078Z,27.35
2022-08-10T14:47:11.068Z,27.37
2022-08-10T14:49:57.032Z,27.37
2022-08-10T14:52:28.091Z,27.39
2022-08-10T14:54:58.173Z,27.39
2022-08-10T14:58:19.895Z,27.40
2022-08-10T15:00:33.067Z,27.43
2022-08-10T15:03:06.354Z,27.46
2022-08-10T15:05:59.107Z,27.49
2022-08-10T15:08:29.393Z,27.52
2022-08-10T15:11:06.135Z,27.52
2022-08-10T15:13:35.510Z,27.54
2022-08-10T15:16:12.960Z,27.61
2022-08-10T15:18:58.159Z,27.63
2022-08-10T15:21:42.885Z,27.65
2022-08-10T15:24:16.284Z,27.64
2022-08-10T15:26:57.682Z,27.62
2022-08-10T15:29:27.484Z,27.60
2022-08-10T15:32:14.394Z,27.56
2022-08-10T15:35:02.260Z,27.55
2022-08-10T15:37:40.621Z,27.54
2022-08-10T15:40:25.303Z,27.54
2022-08-10T15:43:00.157Z,27.55
2022-08-10T15:45:28.518Z,27.55
2022-08-10T15:48:03.293Z,27.59
2022-08-10T15:50:35.287Z,27.61
2022-08-10T15:53:16.562Z,27.60
2022-08-10T15:55:51.737Z,27.59
2022-08-10T15:58:38.720Z,27.57
2022-08-10T16:02:14.545Z,27.57
2022-08-10T16:04:08.631Z,27.60
2022-08-10T16:06:42.701Z,27.59
2022-08-10T16:10:23.920Z,27.59
2022-08-10T16:12:09.306Z,27.55
2022-08-10T16:14:38.640Z,27.54
2022-08-10T16:17:10.678Z,27.53
2022-08-10T16:19:49.115Z,27.53
2022-08-10T16:22:36.622Z,27.53
2022-08-10T16:25:13.631Z,27.54
2022-08-10T16:27:42.137Z,27.53
2022-08-10T16:30:10.502Z,27.54
2022-08-10T16:32:40.161Z,27.54
2022-08-10T16:35:11.780Z,27.52
2022-08-10T16:37:57.185Z,27.50
2022-08-10T16:40:28.971Z,27.41
2022-08-10T16:42:58.479Z,27.45
2022-08-10T16:45:32.444Z,27.45
2022-08-10T16:48:00.775Z,27.46
2022-08-10T16:50:33.307Z,27.44
2022-08-10T16:53:03.414Z,27.44
2022-08-10T16:55:47.925Z,27.42
2022-08-10T16:58:19.682Z,27.41
2022-08-10T17:00:50.443Z,27.39
2022-08-10T17:04:04.737Z,27.38
2022-08-10T17:06:13.654Z,27.37
2022-08-10T17:08:47.850Z,27.37
2022-08-10T17:11:17.192Z,27.36
2022-08-10T17:13:45.537Z,27.34
2022-08-10T17:16:17.039Z,27.34
2022-08-10T17:18:47.979Z,27.33
2022-08-10T17:21:22.359Z,27.32
2022-08-10T17:23:53.727Z,27.31
2022-08-10T17:26:26.302Z,27.32
2022-08-10T17:29:08.927Z,27.31
2022-08-10T17:31:54.500Z,27.31
2022-08-10T17:34:31.454Z,27.30
2022-08-10T17:37:01.722Z,27.30
2022-08-10T17:39:33.899Z,27.30
2022-08-10T17:42:03.006Z,27.29
2022-08-10T17:44:36.752Z,27.28
2022-08-10T17:47:11.003Z,27.28
2022-08-10T17:49:40.849Z,27.20
2022-08-10T17:52:12.524Z,27.28
2022-08-10T17:54:44.309Z,27.27
2022-08-10T17:57:14.933Z,27.28
2022-08-10T17:59:43.765Z,27.28
2022-08-10T18:02:14.497Z,27.29
2022-08-10T18:04:48.663Z,27.29
2022-08-10T18:07:20.763Z,27.29
2022-08-10T18:09:51.553Z,27.27
2022-08-10T18:12:29.324Z,27.28
2022-08-10T18:15:12.472Z,27.28
2022-08-10T18:17:46.245Z,27.26
2022-08-10T18:20:15.346Z,27.23
2022-08-10T18:22:51.479Z,27.21
2022-08-10T18:25:21.987Z,27.20
2022-08-10T18:28:04.643Z,27.18
2022-08-10T18:30:36.592Z,27.15
2022-08-10T18:33:09.569Z,27.15
2022-08-10T18:35:38.386Z,27.12
2022-08-10T18:38:08.653Z,27.12
2022-08-10T18:40:40.987Z,27.10
2022-08-10T18:44:10.515Z,27.11
2022-08-10T18:46:01.514Z,27.09
2022-08-10T18:48:38.321Z,27.09
2022-08-10T18:51:08.125Z,27.07
2022-08-10T18:53:41.174Z,27.07
2022-08-10T18:56:32.791Z,27.06
2022-08-10T18:59:12.611Z,27.05
2022-08-10T19:02:08.343Z,27.03
2022-08-10T19:04:56.693Z,27.02
2022-08-10T19:07:36.675Z,27.02
2022-08-10T19:10:11.305Z,26.99
2022-08-10T19:12:49.309Z,26.98
2022-08-10T19:15:29.046Z,26.91
2022-08-10T19:18:11.935Z,26.97
2022-08-10T19:20:47.873Z,26.95
2022-08-10T19:23:31.000Z,26.94
2022-08-10T19:26:43.243Z,26.93
2022-08-10T19:29:03.775Z,26.91
2022-08-10T19:31:51.113Z,26.90
2022-08-10T19:34:45.431Z,26.87
2022-08-10T19:37:34.375Z,26.86
2022-08-10T19:40:17.787Z,26.84
2022-08-10T19:42:56.128Z,26.83
2022-08-10T19:46:00.556Z,26.82
2022-08-10T19:48:24.014Z,26.81
2022-08-10T19:50:58.781Z,26.77
2022-08-10T19:53:32.703Z,26.76
2022-08-10T19:56:30.603Z,26.76
2022-08-10T19:59:03.674Z,26.74
2022-08-10T20:01:55.138Z,26.73
2022-08-10T20:04:29.448Z,26.72
2022-08-10T20:07:10.269Z,26.70
2022-08-10T20:09:47.206Z,26.69
2022-08-10T20:12:24.172Z,26.68
2022-08-10T20:15:02.782Z,26.66
2022-08-10T20:17:51.721Z,26.65
2022-08-10T20:20:30.467Z,26.64
2022-08-10T20:23:07.083Z,26.63
2022-08-10T20:25:35.205Z,26.61
2022-08-10T20:28:12.078Z,26.61
2022-08-10T20:30:46.357Z,26.58
2022-08-10T20:33:23.730Z,26.56
2022-08-10T20:35:57.079Z,26.57
2022-08-10T20:38:31.558Z,26.55
2022-08-10T20:41:09.291Z,26.53
2022-08-10T20:43:45.634Z,26.52
2022-08-10T20:46:27.675Z,26.49
2022-08-10T20:48:59.899Z,26.48
2022-08-10T20:51:57.932Z,26.46
2022-08-10T20:54:22.702Z,26.44
2022-08-10T20:57:56.785Z,26.43
2022-08-10T21:00:07.639Z,26.41
2022-08-10T21:03:00.267Z,26.39
2022-08-10T21:05:45.526Z,26.36
2022-08-10T21:08:19.782Z,26.34
2022-08-10T21:11:03.314Z,26.30
2022-08-10T21:13:44.531Z,26.30
2022-08-10T21:16:29.849Z,26.27
2022-08-10T21:19:19.523Z,26.25
2022-08-10T21:22:05.298Z,26.24
2022-08-10T21:24:41.960Z,26.22
2022-08-10T21:27:22.730Z,26.19
2022-08-10T21:30:09.004Z,26.17
2022-08-10T21:32:48.350Z,26.15
2022-08-10T21:35:46.312Z,26.13
2022-08-10T21:38:24.134Z,26.04
2022-08-10T21:41:58.496Z,26.09
2022-08-10T21:44:58.995Z,26.08
2022-08-10T21:48:06.618Z,26.06
2022-08-10T21:51:14.626Z,26.06
2022-08-10T21:54:07.634Z,26.04
2022-08-10T21:56:59.898Z,26.04
2022-08-10T21:59:50.877Z,26.01
2022-08-10T22:02:50.151Z,26.00
2022-08-10T22:05:39.266Z,25.99
2022-08-10T22:08:28.058Z,25.97
2022-08-10T22:11:16.743Z,25.96
2022-08-10T22:14:09.379Z,25.93
2022-08-10T22:17:04.085Z,25.91
2022-08-10T22:19:54.080Z,25.88
2022-08-10T22:26:08.985Z,25.84
2022-08-10T22:29:04.389Z,25.83
2022-08-10T22:31:28.428Z,25.86
2022-08-10T22:32:05.871Z,25.80
2022-08-10T22:35:21.323Z,25.79
2022-08-10T22:38:16.187Z,25.76
2022-08-10T22:41:04.748Z,25.74
2022-08-10T22:43:52.604Z,25.72
2022-08-10T22:46:43.613Z,25.71
2022-08-10T22:49:10.595Z,25.68
2022-08-10T22:51:51.775Z,25.67
2022-08-10T22:54:41.828Z,25.66
2022-08-10T22:57:32.937Z,25.59
2022-08-10T23:00:10.355Z,25.60
2022-08-10T23:02:39.883Z,25.58
2022-08-10T23:05:11.396Z,25.53
2022-08-10T23:07:48.100Z,25.53
2022-08-10T23:10:19.241Z,25.51
2022-08-10T23:12:52.322Z,25.49
2022-08-10T23:15:43.765Z,25.45
2022-08-10T23:18:34.282Z,25.44
2022-08-10T23:21:03.850Z,25.42
2022-08-10T23:23:39.508Z,25.39
2022-08-10T23:26:12.789Z,25.37
2022-08-10T23:28:58.566Z,25.35
2022-08-10T23:31:59.133Z,25.33
2022-08-10T23:34:25.107Z,25.28
2022-08-10T23:36:55.396Z,25.27
2022-08-10T23:39:32.502Z,25.26
2022-08-10T23:42:07.418Z,25.25
2022-08-10T23:44:43.638Z,25.22
2022-08-10T23:47:14.823Z,25.20
2022-08-10T23:49:45.232Z,25.18
2022-08-10T23:52:16.528Z,25.17
2022-08-10T23:54:48.457Z,25.16
2022-08-10T23:57:19.518Z,25.15
2022-08-10T23:59:55.651Z,25.15
